Time;durP1;ratioP1;P1;durP2;ratioP2;P2;SDS_P1;SDS_P2;PMS_P1;PMS_P2;Temp;Humidity;BMP_temperature;BMP_pressure;BME280_temperature;BME280_humidity;BME280_pressure;Samples;Min_cycle;Max_cycle;Signal;HPM_P1;HPM_P2
2022/04/29 00:00:38;;;;;;;12.93;9.35;;;9.70;99.90;;;8.57;82.84;98334.56;4969050;28;20813;-73
2022/04/29 00:03:07;;;;;;;14.45;11.10;;;9.60;99.90;;;8.50;83.15;98332.00;4969431;28;20420;-73
2022/04/29 00:05:34;;;;;;;13.10;10.07;;;9.60;99.90;;;8.51;83.94;98333.59;4969199;28;20442;-73
2022/04/29 00:08:01;;;;;;;13.95;11.05;;;9.60;99.90;;;8.46;83.67;98330.81;4969376;28;20774;-73
2022/04/29 00:10:27;;;;;;;17.27;13.20;;;9.60;99.90;;;8.40;83.84;98334.31;4968762;28;20419;-73
2022/04/29 00:12:54;;;;;;;11.82;7.88;;;9.50;99.90;;;8.44;80.89;98326.75;4969191;28;20455;-73
2022/04/29 00:15:21;;;;;;;13.02;9.85;;;9.50;99.90;;;8.42;83.75;98334.88;4969149;28;20415;-73
2022/04/29 00:17:47;;;;;;;12.57;7.95;;;9.50;99.90;;;8.41;82.79;98328.03;4969097;28;20952;-73
2022/04/29 00:20:14;;;;;;;11.70;8.30;;;9.50;99.90;;;8.35;82.26;98326.22;4968633;28;20889;-73
2022/04/29 00:22:41;;;;;;;10.55;8.43;;;9.40;99.90;;;8.37;82.18;98316.25;4969129;28;20495;-73
2022/04/29 00:25:10;;;;;;;13.30;10.13;;;9.30;99.90;;;8.20;83.36;98319.59;4968800;28;20428;-73
2022/04/29 00:27:39;;;;;;;14.68;10.75;;;9.30;99.90;;;8.14;84.29;98318.63;4969107;28;20416;-73
2022/04/29 00:30:08;;;;;;;11.38;7.45;;;9.30;99.90;;;8.21;82.61;98318.56;4968865;28;20408;-73
2022/04/29 00:32:34;;;;;;;12.32;7.50;;;9.20;99.90;;;8.09;79.63;98318.44;4967536;28;20455;-73
2022/04/29 00:35:00;;;;;;;11.63;8.45;;;9.10;99.90;;;8.07;81.35;98316.03;4968948;28;20415;-73
2022/04/29 00:37:26;;;;;;;11.10;8.68;;;9.10;99.90;;;8.05;83.30;98311.97;4968908;28;20432;-73
2022/04/29 00:39:52;;;;;;;17.17;11.00;;;9.10;99.90;;;7.96;83.82;98302.72;4968626;28;20968;-73
2022/04/29 00:42:22;;;;;;;17.20;11.75;;;9.10;99.90;;;7.95;84.37;98301.91;4968427;28;20496;-73
2022/04/29 00:44:49;;;;;;;15.63;9.70;;;9.10;99.90;;;8.02;84.34;98292.13;4968661;28;20423;-73
2022/04/29 00:47:18;;;;;;;14.80;9.10;;;9.10;99.90;;;7.98;84.25;98298.81;4967565;28;20413;-73
2022/04/29 00:49:45;;;;;;;12.55;8.55;;;9.00;99.90;;;7.98;82.41;98292.75;4967280;28;20845;-73
2022/04/29 00:52:14;;;;;;;12.48;9.35;;;9.00;99.90;;;7.94;83.78;98294.19;4968293;28;20414;-73
2022/04/29 00:54:43;;;;;;;17.43;12.20;;;9.00;99.90;;;7.82;83.93;98288.00;4968685;28;20419;-73
2022/04/29 00:57:19;;;;;;;19.98;13.82;;;8.90;99.90;;;7.76;84.50;98294.91;4968627;28;20507;-72
2022/04/29 00:59:51;;;;;;;16.42;10.90;;;8.90;99.90;;;7.83;84.15;98292.22;4968637;28;20408;-72
2022/04/29 01:02:17;;;;;;;13.07;8.85;;;8.90;99.90;;;7.83;83.51;98286.94;4968207;28;20411;-72
2022/04/29 01:04:59;;;;;;;15.52;10.05;;;8.90;99.90;;;7.83;83.84;98286.94;4968534;28;20428;-72
2022/04/29 01:07:27;;;;;;;13.57;10.40;;;8.80;99.90;;;7.82;84.59;98286.13;4968618;28;20401;-71
2022/04/29 01:09:53;;;;;;;16.92;9.52;;;8.80;99.90;;;7.77;84.55;98285.97;4970745;28;20404;-73
2022/04/29 01:12:19;;;;;;;14.30;10.10;;;8.80;99.90;;;7.75;84.62;98293.28;4971553;28;20446;-72
2022/04/29 01:14:46;;;;;;;17.20;11.73;;;8.80;99.90;;;7.71;84.84;98289.47;4971906;28;20408;-71
2022/04/29 01:17:12;;;;;;;23.75;14.40;;;8.80;99.90;;;7.60;85.17;98285.63;4971880;28;20415;-73
2022/04/29 01:19:39;;;;;;;12.27;8.97;;;8.70;99.90;;;7.52;83.13;98275.34;4970576;28;20474;-73
2022/04/29 01:22:07;;;;;;;15.15;10.65;;;8.60;99.90;;;7.60;84.24;98277.75;4971425;28;20503;-73
2022/04/29 01:24:33;;;;;;;16.92;12.77;;;8.60;99.90;;;7.51;84.93;98279.03;4971753;28;20439;-72
2022/04/29 01:26:59;;;;;;;13.77;9.27;;;8.60;99.90;;;7.48;82.17;98278.63;4971662;28;20819;-74
2022/04/29 01:29:28;;;;;;;11.97;8.60;;;8.50;99.90;;;7.43;81.06;98270.53;4971521;28;20487;-74
2022/04/29 01:31:54;;;;;;;14.65;10.63;;;8.40;99.90;;;7.44;83.27;98262.44;4971225;28;20404;-73
2022/04/29 01:34:20;;;;;;;13.25;11.02;;;8.40;99.90;;;7.39;84.33;98257.78;4971560;28;20462;-74
2022/04/29 01:36:46;;;;;;;20.30;14.27;;;8.50;99.90;;;7.29;85.06;98269.78;4971474;28;20447;-74
2022/04/29 01:39:13;;;;;;;17.02;13.23;;;8.40;99.90;;;7.35;85.78;98271.59;4971593;28;20415;-73
2022/04/29 01:41:39;;;;;;;14.07;10.20;;;8.40;99.90;;;7.36;84.94;98267.94;4971126;28;20874;-74
2022/04/29 01:44:07;;;;;;;15.27;10.47;;;8.40;99.90;;;7.35;84.89;98269.75;4970629;28;21291;-73
2022/04/29 01:46:33;;;;;;;15.60;10.40;;;8.40;99.90;;;7.33;84.31;98258.63;4970086;28;20849;-72
2022/04/29 01:48:59;;;;;;;13.50;9.90;;;8.40;99.90;;;7.26;83.17;98263.09;4971339;28;20474;-71
2022/04/29 01:51:25;;;;;;;15.05;11.57;;;8.30;99.90;;;7.26;84.69;98271.00;4970953;28;20452;-74
2022/04/29 01:53:53;;;;;;;16.33;11.63;;;8.30;99.90;;;7.25;85.13;98273.84;4971332;28;20412;-71
2022/04/29 01:56:32;;;;;;;15.55;11.20;;;8.30;99.90;;;7.23;85.61;98273.22;4971143;28;20411;-74
2022/04/29 01:58:58;;;;;;;18.58;12.82;;;8.30;99.90;;;7.22;85.29;98272.41;4971242;28;20891;-74
2022/04/29 02:01:25;;;;;;;16.20;12.32;;;8.30;99.90;;;7.25;85.52;98277.28;4970889;28;20408;-74
2022/04/29 02:03:51;;;;;;;13.83;10.43;;;8.30;99.90;;;7.31;85.30;98279.06;4971196;28;20932;-73
2022/04/29 02:06:17;;;;;;;13.02;8.90;;;8.40;99.90;;;7.21;83.06;98275.28;4971117;28;20408;-73
2022/04/29 02:08:42;;;;;;;14.23;10.95;;;8.30;99.90;;;7.24;83.66;98265.13;4971092;28;20420;-73
2022/04/29 02:11:08;;;;;;;16.90;10.60;;;8.20;99.90;;;7.26;83.63;98271.00;4970556;28;20409;-74
2022/04/29 02:13:36;;;;;;;16.73;12.93;;;8.30;99.90;;;7.10;84.50;98268.00;4971090;28;20435;-74
2022/04/29 02:16:02;;;;;;;20.40;15.85;;;8.20;99.90;;;7.06;85.37;98267.63;4971122;28;20436;-74
2022/04/29 02:18:27;;;;;;;22.50;16.20;;;8.20;99.90;;;7.04;86.07;98261.75;4971067;28;20470;-73
2022/04/29 02:20:53;;;;;;;19.27;14.75;;;8.20;99.90;;;7.06;86.57;98262.38;4969089;28;20525;-74
2022/04/29 02:23:19;;;;;;;15.63;11.20;;;8.20;99.90;;;7.11;84.33;98259.91;4970925;28;20408;-73
2022/04/29 02:25:45;;;;;;;17.83;14.70;;;8.20;99.90;;;7.05;85.68;98268.63;4970773;28;20530;-74
2022/04/29 02:28:12;;;;;;;20.35;15.90;;;8.10;99.90;;;7.03;85.33;98257.50;4970828;28;20916;-73
2022/04/29 02:30:40;;;;;;;19.50;14.57;;;8.20;99.90;;;6.98;86.05;98258.13;4970429;28;20412;-73
2022/04/29 02:33:06;;;;;;;15.93;12.43;;;8.20;99.90;;;7.03;86.61;98246.16;4970723;28;20412;-74
2022/04/29 02:35:32;;;;;;;15.13;12.65;;;8.10;99.90;;;6.97;86.57;98245.97;4970761;28;20412;-73
2022/04/29 02:37:58;;;;;;;20.13;15.30;;;8.10;99.90;;;6.91;86.44;98240.75;4970810;28;20485;-73
2022/04/29 02:40:24;;;;;;;17.30;10.47;;;8.10;99.90;;;6.96;84.51;98243.53;4970233;28;20416;-74
2022/04/29 02:42:50;;;;;;;17.75;10.60;;;8.00;99.90;;;6.96;84.55;98240.91;4970611;28;20412;-74
2022/04/29 02:45:16;;;;;;;17.60;12.97;;;8.00;99.90;;;6.83;85.69;98244.41;4970534;28;20477;-73
2022/04/29 02:47:44;;;;;;;18.13;14.20;;;8.00;99.90;;;6.74;86.07;98240.38;4970808;28;20487;-74
2022/04/29 02:50:10;;;;;;;18.15;13.35;;;7.90;99.90;;;6.80;86.80;98239.53;4970076;28;20415;-73
2022/04/29 02:52:36;;;;;;;15.90;11.95;;;7.90;99.90;;;6.78;85.98;98243.38;4970484;28;20904;-73
2022/04/29 02:55:02;;;;;;;14.88;10.90;;;7.90;99.90;;;6.74;84.87;98247.44;4970231;28;20869;-73
2022/04/29 02:57:28;;;;;;;13.68;10.73;;;7.80;99.90;;;6.75;84.89;98241.19;4972003;28;20493;-72
2022/04/29 02:59:55;;;;;;;18.80;12.88;;;7.80;99.90;;;6.72;85.05;98236.31;4971446;28;20462;-72
2022/04/29 03:02:20;;;;;;;18.67;14.83;;;7.80;99.90;;;6.73;85.13;98235.31;4970028;28;20948;-72
2022/04/29 03:04:48;;;;;;;19.77;14.82;;;7.80;99.90;;;6.60;85.95;98226.44;4970191;28;20425;-72
2022/04/29 03:07:13;;;;;;;19.13;15.10;;;7.70;99.90;;;6.55;86.45;98228.84;4970307;28;20450;-73
2022/04/29 03:09:39;;;;;;;18.77;14.45;;;7.70;99.90;;;6.60;86.95;98223.00;4970190;28;20412;-73
2022/04/29 03:12:12;;;;;;;17.52;13.25;;;7.80;99.90;;;6.58;86.27;98222.38;4969698;28;20419;-73
2022/04/29 03:14:38;;;;;;;22.92;17.13;;;7.70;99.90;;;6.52;86.69;98233.72;4970238;28;20754;-73
2022/04/29 03:17:04;;;;;;;21.95;17.27;;;7.70;99.90;;;6.49;87.00;98224.41;4970266;28;20413;-73
2022/04/29 03:19:30;;;;;;;17.33;14.03;;;7.60;99.90;;;6.51;87.19;98226.84;4969965;28;20438;-73
2022/04/29 03:21:57;;;;;;;21.40;13.98;;;7.60;99.90;;;6.52;87.50;98225.81;4969728;28;20487;-73
2022/04/29 03:24:23;;;;;;;18.33;14.43;;;7.60;99.90;;;6.51;87.48;98221.56;4969959;28;20429;-73
2022/04/29 03:26:49;;;;;;;22.52;16.02;;;7.60;99.90;;;6.47;87.61;98218.53;4969906;28;20412;-73
2022/04/29 03:29:15;;;;;;;21.87;15.30;;;7.60;99.90;;;6.44;87.59;98213.69;4969916;28;20409;-73
2022/04/29 03:31:41;;;;;;;19.05;11.77;;;7.60;99.90;;;6.50;86.35;98209.44;4969570;28;20478;-72
2022/04/29 03:34:08;;;;;;;22.25;13.80;;;7.60;99.90;;;6.49;86.18;98211.25;4970169;28;20408;-73
2022/04/29 03:36:34;;;;;;;18.95;13.85;;;7.60;99.90;;;6.43;86.83;98213.91;4969737;28;20424;-72
2022/04/29 03:39:02;;;;;;;17.38;12.90;;;7.60;99.90;;;6.46;85.99;98203.78;4969782;28;20409;-72
2022/04/29 03:41:28;;;;;;;17.42;13.27;;;7.50;99.90;;;6.43;86.86;98204.19;4969401;28;20928;-73
2022/04/29 03:43:54;;;;;;;17.90;14.70;;;7.50;99.90;;;6.35;87.21;98209.66;4969678;28;20409;-73
2022/04/29 03:46:19;;;;;;;21.83;16.90;;;7.50;99.90;;;6.34;87.69;98209.84;4969594;28;20523;-71
2022/04/29 03:51:30;;;;;;;20.85;15.07;;;7.50;99.90;;;6.33;87.61;98210.84;4958502;28;20405;-73
2022/04/29 03:53:56;;;;;;;26.05;19.10;;;7.50;99.90;;;6.29;87.65;98199.97;4961421;28;20767;-74
2022/04/29 03:56:25;;;;;;;23.30;18.13;;;7.40;99.90;;;6.36;88.88;98210.47;4969353;28;20408;-71
2022/04/29 03:58:51;;;;;;;26.97;19.00;;;7.50;99.90;;;6.28;87.86;98203.59;4969411;28;20404;-72
2022/04/29 04:01:17;;;;;;;27.95;19.85;;;7.40;99.90;;;6.27;88.13;98206.41;4968952;28;20466;-72
2022/04/29 04:03:43;;;;;;;17.00;12.73;;;7.40;99.90;;;6.36;88.51;98208.66;4969337;28;20416;-72
2022/04/29 04:08:54;;;;;;;20.30;14.10;;;7.40;99.90;;;6.30;88.45;98204.22;4969353;28;20395;-72
2022/04/29 04:11:20;;;;;;;19.50;14.65;;;7.40;99.90;;;6.28;88.58;98208.03;4969034;28;20763;-71
2022/04/29 04:13:47;;;;;;;19.65;12.45;;;7.40;99.90;;;6.30;87.92;98212.09;4969380;28;20409;-71
2022/04/29 04:16:13;;;;;;;19.00;14.75;;;7.40;99.90;;;6.22;87.89;98221.00;4969262;28;20400;-72
2022/04/29 04:18:39;;;;;;;22.35;16.00;;;7.40;99.90;;;6.27;88.92;98209.84;4969236;28;20905;-72
2022/04/29 04:21:05;;;;;;;18.20;12.93;;;7.40;99.90;;;6.26;88.06;98217.94;4968820;28;20478;-72
2022/04/29 04:23:31;;;;;;;18.70;14.35;;;7.40;99.90;;;6.24;88.52;98212.88;4969077;28;20886;-72
2022/04/29 04:25:57;;;;;;;21.70;16.20;;;7.40;99.90;;;6.22;89.01;98222.81;4969007;28;20825;-72
2022/04/29 04:28:23;;;;;;;23.10;16.17;;;7.40;99.90;;;6.24;89.16;98230.50;4969070;28;20491;-72
2022/04/29 04:30:50;;;;;;;22.73;18.03;;;7.40;99.90;;;6.27;89.67;98236.16;4968637;28;20551;-72
2022/04/29 04:33:16;;;;;;;19.42;13.90;;;7.40;99.90;;;6.37;89.54;98225.25;4984205;28;20416;-72
2022/04/29 04:35:42;;;;;;;15.80;11.63;;;7.40;99.90;;;6.43;88.69;98234.94;4969043;28;20412;-72
2022/04/29 04:38:08;;;;;;;17.90;12.45;;;7.40;99.90;;;6.51;88.75;98243.44;4968960;28;20413;-72
2022/04/29 04:40:34;;;;;;;18.58;14.70;;;7.50;99.90;;;6.54;89.72;98247.47;4968501;28;20416;-72
2022/04/29 04:42:59;;;;;;;24.33;14.23;;;7.60;99.90;;;6.61;90.26;98243.81;4968890;28;20412;-72
2022/04/29 04:45:25;;;;;;;19.02;14.32;;;7.60;99.90;;;6.68;90.56;98251.72;4968718;28;20417;-72
2022/04/29 04:47:52;;;;;;;18.55;14.73;;;7.70;99.90;;;6.72;91.06;98245.00;4950597;28;20505;-75
2022/04/29 04:50:18;;;;;;;22.95;17.35;;;7.80;99.90;;;6.81;91.33;98248.25;4948640;28;20410;-74
2022/04/29 04:52:45;;;;;;;24.35;18.83;;;7.80;99.90;;;6.86;91.41;98245.78;4949138;28;20426;-74
2022/04/29 04:55:12;;;;;;;20.52;17.20;;;8.00;99.90;;;6.91;91.83;98246.81;4948457;29;20521;-73
2022/04/29 04:57:38;;;;;;;23.63;17.30;;;8.00;99.90;;;6.98;91.75;98241.53;4948996;29;20398;-74
2022/04/29 05:00:05;;;;;;;20.70;16.33;;;8.00;99.90;;;7.06;92.12;98243.13;5036761;23;20442;-73
2022/04/29 05:02:31;;;;;;;16.45;12.80;;;8.10;99.90;;;7.17;91.78;98240.63;5077264;28;20783;-73
2022/04/29 05:04:58;;;;;;;21.93;17.47;;;8.20;99.90;;;7.21;92.14;98243.69;5072332;28;20458;-72
2022/04/29 05:07:25;;;;;;;23.58;18.80;;;8.20;99.90;;;7.29;92.57;98241.59;5070198;28;20487;-73
2022/04/29 05:09:51;;;;;;;19.88;16.33;;;8.30;99.90;;;7.38;92.85;98248.25;5070304;28;20761;-73
2022/04/29 05:12:17;;;;;;;23.80;17.77;;;8.40;99.90;;;7.47;93.18;98250.66;5073361;28;20481;-75
2022/04/29 05:14:42;;;;;;;23.52;19.48;;;8.50;99.90;;;7.53;93.28;98242.72;5080668;28;20763;-76
2022/04/29 05:17:09;;;;;;;24.33;19.75;;;8.50;99.90;;;7.63;93.26;98250.16;5065035;28;20460;-77
2022/04/29 05:19:34;;;;;;;22.73;16.38;;;8.60;99.90;;;7.70;93.52;98257.03;5064071;28;20693;-76
2022/04/29 05:22:02;;;;;;;17.77;14.75;;;8.70;99.90;;;7.76;93.88;98256.16;5072485;28;20443;-76
2022/04/29 05:24:28;;;;;;;15.90;13.88;;;8.70;99.90;;;7.82;93.80;98259.00;5083087;28;20406;-76
2022/04/29 05:26:54;;;;;;;17.25;14.35;;;8.80;99.90;;;7.90;93.75;98256.09;5089829;28;20463;-76
2022/04/29 05:29:20;;;;;;;17.70;15.68;;;8.90;99.90;;;7.95;94.00;98267.63;5071681;28;20972;-76
2022/04/29 05:31:46;;;;;;;18.23;15.98;;;8.90;99.90;;;8.00;94.17;98259.88;5090020;28;20398;-76
2022/04/29 05:34:13;;;;;;;22.15;17.10;;;9.00;99.90;;;8.04;94.30;98255.78;5090333;28;20397;-75
2022/04/29 05:36:39;;;;;;;17.58;15.48;;;9.00;99.90;;;8.10;94.45;98269.97;5090244;28;20425;-73
2022/04/29 05:44:36;;;;;;;19.38;15.30;;;9.20;99.90;;;8.23;94.62;98258.50;5090153;28;20457;-73
2022/04/29 05:47:02;;;;;;;18.52;14.65;;;9.20;99.90;;;8.30;94.62;98261.91;5090136;28;20398;-73
2022/04/29 05:49:28;;;;;;;16.25;13.73;;;9.30;99.90;;;8.36;95.10;98268.97;5089779;28;20401;-72
2022/04/29 05:51:54;;;;;;;17.08;14.68;;;9.30;99.90;;;8.43;95.31;98270.53;5089723;28;20405;-73
2022/04/29 05:54:21;;;;;;;19.87;15.83;;;9.40;99.90;;;8.49;95.39;98266.25;5072169;28;20413;-73
2022/04/29 05:56:47;;;;;;;17.08;13.98;;;9.50;99.90;;;8.57;95.68;98273.88;5093500;28;20454;-72
2022/04/29 05:59:13;;;;;;;17.77;15.40;;;9.50;99.90;;;8.66;95.87;98277.88;5093343;28;20398;-73
2022/04/29 06:01:39;;;;;;;18.88;14.77;;;9.60;99.90;;;8.78;96.08;98272.69;5093069;28;20883;-74
2022/04/29 06:04:04;;;;;;;22.48;14.57;;;9.70;99.90;;;8.93;96.37;98271.34;5093300;28;20405;-74
2022/04/29 06:06:31;;;;;;;16.67;13.40;;;9.80;99.90;;;9.09;96.48;98266.50;5093232;28;20459;-73
2022/04/29 06:08:57;;;;;;;16.40;12.93;;;10.00;99.90;;;9.24;96.70;98265.13;5093195;28;20405;-74
2022/04/29 06:11:24;;;;;;;15.75;12.02;;;10.10;99.90;;;9.42;97.16;98263.47;5093026;28;20506;-73
2022/04/29 06:13:51;;;;;;;14.27;11.93;;;10.30;99.90;;;9.58;97.89;98273.44;5093475;28;20421;-73
2022/04/29 06:16:17;;;;;;;15.27;12.18;;;10.40;99.90;;;9.74;98.40;98275.47;5093132;28;20430;-73
2022/04/29 06:18:43;;;;;;;14.85;12.27;;;10.60;99.90;;;9.87;98.65;98277.13;5092919;28;20409;-73
2022/04/29 06:21:09;;;;;;;15.60;12.35;;;10.70;99.90;;;10.00;98.93;98267.16;5092607;28;20457;-73
2022/04/29 06:23:35;;;;;;;14.15;11.85;;;10.80;99.90;;;10.09;99.09;98273.75;5093246;28;20406;-73
2022/04/29 06:26:01;;;;;;;18.85;12.13;;;10.90;99.90;;;10.17;98.77;98280.59;5092921;28;20919;-73
2022/04/29 06:28:28;;;;;;;14.93;12.05;;;11.00;99.90;;;10.32;98.65;98277.50;5083675;28;20442;-73
2022/04/29 06:30:54;;;;;;;15.95;11.77;;;11.10;99.90;;;10.47;98.78;98281.34;5087986;28;20515;-73
2022/04/29 06:33:21;;;;;;;18.48;13.95;;;11.30;99.90;;;10.59;99.17;98277.91;5085542;28;20800;-72
2022/04/29 06:35:49;;;;;;;16.80;13.03;;;11.40;99.90;;;10.77;98.71;98278.59;5082371;28;20413;-72
2022/04/29 06:38:16;;;;;;;15.73;12.60;;;11.60;99.90;;;10.97;98.81;98272.97;5075460;28;20759;-73
2022/04/29 06:40:42;;;;;;;14.80;11.25;;;11.80;99.90;;;11.05;99.30;98280.53;5084167;28;20559;-73
2022/04/29 06:43:08;;;;;;;16.73;12.57;;;11.90;99.90;;;11.24;99.40;98286.53;5072553;28;20936;-73
2022/04/29 06:45:36;;;;;;;16.13;12.98;;;12.00;99.90;;;11.41;99.57;98289.25;5074015;28;20419;-72
2022/04/29 06:48:02;;;;;;;16.63;12.65;;;12.20;99.90;;;11.57;100.00;98288.53;5075731;28;20491;-72
2022/04/29 06:50:28;;;;;;;16.70;11.98;;;12.40;99.90;;;11.75;100.00;98280.41;5070732;28;20408;-73
2022/04/29 06:52:54;;;;;;;15.75;11.43;;;12.50;99.90;;;11.73;100.00;98279.81;5065177;28;20538;-73
2022/04/29 06:55:20;;;;;;;17.08;12.20;;;12.60;99.90;;;11.97;99.21;98284.03;5068796;28;20392;-73
2022/04/29 06:57:49;;;;;;;18.15;12.52;;;12.70;99.90;;;12.07;98.53;98285.25;5068919;28;21003;-82
2022/04/29 07:00:16;;;;;;;17.27;13.57;;;12.80;99.90;;;12.13;96.83;98278.97;5070388;28;21022;-77
2022/04/29 07:02:43;;;;;;;17.23;13.10;;;12.90;99.90;;;12.12;90.47;98280.84;5068166;28;20419;-76
2022/04/29 07:05:09;;;;;;;17.67;12.90;;;12.90;99.90;;;12.23;91.67;98279.16;5070332;28;20476;-72
2022/04/29 07:07:35;;;;;;;16.15;12.57;;;13.00;99.90;;;12.34;92.86;98272.97;5070935;28;20419;-72
2022/04/29 07:10:01;;;;;;;14.43;11.50;;;13.10;99.90;;;12.44;93.47;98280.31;5067464;28;20415;-78
2022/04/29 07:12:27;;;;;;;17.70;11.82;;;13.20;99.90;;;12.54;93.36;98278.63;5077449;28;20479;-78
2022/04/29 07:14:53;;;;;;;15.48;11.27;;;13.30;99.90;;;12.62;93.62;98272.94;5082066;28;20415;-75
2022/04/29 07:17:20;;;;;;;13.75;11.23;;;13.40;99.90;;;12.66;93.80;98268.72;5079798;28;20502;-79
2022/04/29 07:19:47;;;;;;;19.08;11.85;;;13.40;99.90;;;12.72;93.81;98264.28;5069824;28;20415;-73
2022/04/29 07:22:13;;;;;;;14.88;10.95;;;13.40;99.90;;;12.73;92.96;98260.59;5069103;28;20451;-75
2022/04/29 07:24:39;;;;;;;17.80;11.77;;;13.50;99.90;;;12.71;92.54;98268.78;5071599;28;20431;-79
2022/04/29 07:27:06;;;;;;;18.25;11.65;;;13.50;99.90;;;12.74;91.95;98259.53;5075237;28;20412;-75
2022/04/29 07:29:31;;;;;;;16.42;11.32;;;13.50;99.90;;;12.80;92.09;98256.72;5077556;28;20500;-75
2022/04/29 07:31:57;;;;;;;14.20;10.63;;;13.50;99.90;;;12.86;92.40;98267.41;5078873;28;20419;-75
2022/04/29 07:41:44;;;;;;;15.18;10.70;;;13.60;99.90;;;12.93;92.68;98254.78;5082780;28;20409;-75
2022/04/29 07:42:40;;;;;;;16.33;11.63;;;13.80;99.90;;;13.12;87.48;98248.91;5076180;28;20453;-77
2022/04/29 07:45:08;;;;;;;16.40;11.45;;;13.80;99.90;;;13.25;87.02;98255.75;5071680;28;20973;-76
2022/04/29 07:47:36;;;;;;;16.73;10.93;;;14.00;99.90;;;13.25;83.63;98252.28;5076124;28;20414;-76
2022/04/29 07:50:02;;;;;;;15.07;10.75;;;14.00;99.90;;;13.39;86.57;98251.69;5072295;28;20404;-76
2022/04/29 07:52:29;;;;;;;14.98;10.43;;;14.10;99.90;;;13.47;86.77;98253.91;5078409;28;20426;-76
2022/04/29 07:54:55;;;;;;;15.70;10.10;;;14.20;99.90;;;13.50;85.66;98255.28;5070783;28;20416;-77
2022/04/29 07:57:21;;;;;;;11.50;9.73;;;14.30;99.90;;;13.54;86.39;98262.50;5070547;28;20777;-78
2022/04/29 07:59:47;;;;;;;14.07;10.07;;;14.30;99.90;;;13.47;79.53;98247.78;5071129;28;20416;-76
2022/04/29 08:02:13;;;;;;;13.45;10.45;;;14.20;99.90;;;13.45;80.96;98244.59;5070547;28;20425;-75
2022/04/29 08:04:39;;;;;;;17.15;10.65;;;14.20;99.90;;;13.17;71.73;98249.00;5070449;28;20419;-76
2022/04/29 08:07:04;;;;;;;15.57;9.68;;;14.10;97.70;;;13.24;79.54;98246.16;5070841;28;20411;-76
2022/04/29 08:09:32;;;;;;;15.50;9.73;;;14.00;99.90;;;13.19;80.88;98248.78;5077310;28;20487;-76
2022/04/29 08:11:58;;;;;;;18.30;10.43;;;14.00;99.90;;;13.11;82.89;98244.66;5070303;28;20769;-76
2022/04/29 08:14:24;;;;;;;13.63;9.00;;;13.90;99.90;;;13.11;82.74;98259.78;5070738;28;20396;-75
2022/04/29 08:16:50;;;;;;;16.13;10.50;;;13.90;99.90;;;13.09;82.55;98251.25;5058728;28;20471;-73
2022/04/29 08:19:16;;;;;;;11.83;8.87;;;13.80;99.90;;;13.12;83.51;98253.44;5069213;28;20444;-74
2022/04/29 08:21:42;;;;;;;13.23;9.32;;;13.90;99.90;;;13.12;83.00;98251.59;5069528;28;20407;-75
2022/04/29 08:24:08;;;;;;;13.60;9.52;;;13.90;99.90;;;13.16;83.04;98254.56;5070541;28;20407;-76
2022/04/29 08:26:35;;;;;;;13.55;9.52;;;13.90;99.90;;;13.20;82.09;98261.00;5070531;28;20412;-76
2022/04/29 08:29:01;;;;;;;12.98;9.90;;;13.90;99.90;;;13.26;74.95;98259.22;5071029;28;20441;-75
2022/04/29 08:31:27;;;;;;;14.65;9.98;;;14.00;99.90;;;13.26;72.38;98256.56;5069174;28;20413;-79
2022/04/29 08:33:53;;;;;;;12.70;8.63;;;14.00;99.90;;;13.40;72.15;98261.25;5070667;28;20411;-75
2022/04/29 08:36:18;;;;;;;15.32;9.18;;;14.10;99.90;;;13.49;71.51;98251.81;5069895;28;20408;-77
2022/04/29 08:38:46;;;;;;;13.75;9.05;;;14.20;99.90;;;13.62;72.44;98258.59;5070026;28;20424;-74
2022/04/29 08:41:17;;;;;;;12.43;8.75;;;14.30;99.90;;;13.77;72.51;98257.97;5069832;28;20419;-76
2022/04/29 08:43:45;;;;;;;13.30;9.10;;;14.40;99.90;;;13.98;60.30;98249.16;5057679;28;20428;-76
2022/04/29 08:46:13;;;;;;;12.25;8.35;;;14.60;90.90;;;14.01;62.42;98245.16;5070246;28;20403;-76
2022/04/29 08:48:41;;;;;;;11.23;7.43;;;14.60;92.00;;;14.13;67.31;98246.63;5070641;28;20568;-77
2022/04/29 08:51:08;;;;;;;11.90;7.93;;;14.80;96.50;;;14.27;66.34;98249.69;5070968;28;20415;-76
2022/04/29 08:53:35;;;;;;;14.97;8.83;;;14.90;97.60;;;14.31;59.51;98242.78;5070504;28;20411;-76
2022/04/29 08:58:49;;;;;;;12.52;7.80;;;15.00;78.50;;;14.57;53.67;98238.50;5070176;28;20422;-81
2022/04/29 09:01:20;;;;;;;13.02;7.57;;;15.10;78.80;;;14.73;54.69;98231.41;5070316;28;20900;-76
2022/04/29 09:03:46;;;;;;;11.38;6.80;;;15.30;78.50;;;14.80;58.71;98230.13;5069705;28;20415;-76
2022/04/29 09:06:15;;;;;;;12.85;7.40;;;15.40;85.20;;;15.03;58.15;98227.06;5070992;28;20447;-74
2022/04/29 09:08:43;;;;;;;11.15;7.75;;;15.60;85.30;;;15.16;58.73;98228.44;5053596;28;20968;-77
2022/04/29 09:11:10;;;;;;;9.97;7.17;;;15.80;83.30;;;15.42;57.75;98224.81;5065254;28;20506;-75
2022/04/29 09:13:38;;;;;;;7.13;6.00;;;16.00;83.50;;;15.58;58.18;98215.03;5056848;28;20410;-76
2022/04/29 09:16:10;;;;;;;7.22;5.35;;;16.10;84.30;;;15.95;59.72;98214.03;5066120;28;20486;-77
2022/04/29 09:18:39;;;;;;;9.48;5.85;;;16.40;87.70;;;16.24;55.87;98207.09;5090355;28;20487;-76
2022/04/29 09:21:08;;;;;;;7.20;5.38;;;16.70;81.70;;;16.47;57.18;98203.91;5072331;28;20461;-75
2022/04/29 09:23:37;;;;;;;7.70;5.37;;;17.00;83.30;;;16.70;56.92;98205.22;5067723;28;20403;-74
2022/04/29 09:26:05;;;;;;;8.77;5.68;;;17.20;83.10;;;16.87;52.43;98211.09;5051218;28;20420;-74
2022/04/29 09:28:33;;;;;;;7.97;5.93;;;17.40;81.20;;;17.09;52.78;98200.06;5068451;28;20407;-77
2022/04/29 09:31:00;;;;;;;6.53;4.78;;;17.60;74.10;;;17.41;55.95;98207.69;5072318;28;20407;-76
2022/04/29 09:33:29;;;;;;;7.10;4.85;;;17.90;79.00;;;17.65;53.41;98202.53;5071560;28;20421;-76
2022/04/29 09:35:56;;;;;;;9.55;5.28;;;18.20;77.10;;;18.00;43.29;98193.44;5071631;28;20404;-76
2022/04/29 09:41:07;;;;;;;6.07;4.25;;;18.60;67.60;;;18.44;47.00;98188.81;5073090;28;20904;-76
2022/04/29 09:43:36;;;;;;;7.68;4.65;;;18.90;64.50;;;18.38;46.65;98178.41;5073642;28;20917;-75
2022/04/29 09:46:26;;;;;;;6.18;4.30;;;19.00;61.20;;;18.58;48.38;98170.19;5073460;28;20415;-76
2022/04/29 09:49:03;;;;;;;7.05;4.85;;;19.10;64.20;;;18.37;46.07;98177.59;5062891;28;20411;-76
2022/04/29 09:51:48;;;;;;;5.28;4.35;;;18.90;59.90;;;18.60;50.06;98176.09;5072705;28;20396;-75
2022/04/29 09:54:19;;;;;;;8.90;4.18;;;19.10;67.00;;;18.81;48.97;98166.75;5073401;28;20402;-75
2022/04/29 09:57:00;;;;;;;6.55;4.00;;;19.30;66.20;;;18.85;48.37;98175.84;5073386;28;20419;-76
2022/04/29 09:59:28;;;;;;;6.03;4.15;;;19.40;65.90;;;19.02;47.68;98171.91;5073132;28;20399;-75
2022/04/29 10:01:54;;;;;;;7.30;4.60;;;19.50;64.20;;;18.99;49.51;98170.56;5072073;28;20523;-75
2022/04/29 10:04:24;;;;;;;6.53;4.40;;;19.50;66.80;;;19.11;51.14;98162.09;5085195;28;20904;-76
2022/04/29 10:06:50;;;;;;;5.22;4.13;;;19.60;70.70;;;19.20;50.32;98165.75;5055944;28;20403;-76
2022/04/29 10:09:17;;;;;;;7.63;5.43;;;19.70;67.80;;;19.11;45.20;98159.44;5088298;28;20445;-75
2022/04/29 10:11:44;;;;;;;5.35;3.90;;;19.70;61.30;;;19.25;50.43;98157.63;5088987;28;20398;-76
2022/04/29 10:14:14;;;;;;;7.22;4.38;;;19.70;68.80;;;19.26;47.38;98160.03;5076737;28;20435;-76
2022/04/29 10:16:45;;;;;;;5.88;4.72;;;19.90;61.80;;;19.65;49.14;98142.91;5087645;28;20397;-75
2022/04/29 10:22:03;;;;;;;7.73;3.80;;;20.50;67.20;;;20.75;51.69;98154.81;5078403;28;20466;-76
2022/04/29 10:24:30;;;;;;;5.72;3.80;;;21.20;71.20;;;21.21;47.01;98147.44;5071352;28;20891;-75
2022/04/29 10:26:57;;;;;;;7.45;4.60;;;21.80;67.70;;;21.05;42.22;98148.81;5082437;28;20398;-76
2022/04/29 10:29:23;;;;;;;5.30;3.92;;;21.90;52.90;;;21.40;43.83;98152.69;5076439;28;20443;-76
2022/04/29 10:32:06;;;;;;;5.33;4.07;;;22.00;58.30;;;21.84;46.77;98151.97;5073643;28;20404;-74
2022/04/29 10:34:34;;;;;;;5.88;3.15;;;22.30;62.60;;;22.39;44.45;98140.97;5071832;28;20473;-75
2022/04/29 10:37:10;;;;;;;5.63;2.90;;;22.80;59.00;;;22.81;38.51;98149.59;5073916;28;20410;-75
2022/04/29 10:39:36;;;;;;;4.43;2.42;;;23.40;53.90;;;23.64;38.57;98153.97;5052193;28;20408;-75
2022/04/29 10:42:06;;;;;;;6.43;3.63;;;24.00;51.80;;;23.94;34.06;98146.81;5051782;28;20394;-76